x

New London Ledge Ct - Ledge Light Weather Station (ldlc3) Weather Station

2:10 - Tue 1st Sep 2015 All times are EDT. -4 hours from GMT.

  • Wind
    11mph, 13mph gusts
  • Air Temp 77°f
  • Sea Pressure 1014.4mb
  • New London Ledge Ct - Ledge Light Weather Station
  • New London Ledge Ct - Ledge Light Weather Station

More Historic Weather Station data

Upgrade to MSW Pro to gain access to the past 30 days of data for over 8000 Wavebouys and Weather Stations around the globe.

Join Pro

Comparision Forecast

View Surf forecast
   
mar. 09/01 2:10 11 13 mph 1014.4mb 77f
1:55 10 13 mph 1014.4mb 76f
1:40 8 9 mph 1014.5mb 76f
1:25 8 10 mph 1014.6mb 76f
1:10 8 9 mph 1014.7mb 76f
lun. 08/31 7:55 15 16 mph 1013.1mb 78f
7:40 14 17 mph 1013.1mb 78f
7:10 13 14 mph 1012.7mb 82f
6:55 13 17 mph 1012.7mb 82f
6:40 13 15 mph 1012.8mb 83f
6:25 14 18 mph 1012.7mb 82f
6:10 17 18 mph 1012.7mb 81f
5:55 18 21 mph 1012.6mb 81f
5:40 20 22 mph 1012.5mb 80f
5:25 18 21 mph 1012.5mb 79f
5:10 18 20 mph 1012.4mb 78f
4:55 17 18 mph 1012.4mb 77f
4:40 20 21 mph 1012.3mb 77f
4:25 20 22 mph 1012.3mb 78f
4:10 20 22 mph 1012.4mb 78f
3:55 20 21 mph 1012.5mb 77f
3:40 20 21 mph 1012.6mb 77f
3:25 21 24 mph 1012.6mb 78f
3:10 18 23 mph 1012.9mb 77f
2:55 18 22 mph 1013.1mb 76f
2:40 16 18 mph 1013.4mb 75f
2:25 15 17 mph 1013.9mb 75f
2:10 16 17 mph 1014.1mb 74f
1:55 15 17 mph 1014.1mb 74f
1:40 18 20 mph 1014.1mb 74f
1:25 21 23 mph 1014.2mb 75f
1:10 18 20 mph 1014.5mb 75f
12:55 18 20 mph 1014.5mb 75f
12:40 18 20 mph 1014.5mb 75f
12:25 15 17 mph 1014.8mb 75f
12:10 13 14 mph 1014.9mb 75f
9:40 14 15 mph 1015.5mb 74f
9:25 11 13 mph 1015.6mb 74f
9:10 9 11 mph 1015.7mb 74f
8:55 9
mph
1015.6mb 73f
8:40 7 8 mph 1015.7mb 73f
8:25 7 8 mph 1015.7mb 73f
8:10 9 10 mph 1015.4mb 74f
7:55 8 10 mph 1015.6mb 74f
7:40 9 11 mph 1015.5mb 74f
7:25 9 11 mph 1015.5mb 74f
7:10 10 11 mph 1015.4mb 74f
6:55 7 9 mph 1015.4mb 74f
6:40 8 9 mph 1015.4mb 73f
6:25 9 10 mph 1015.3mb 73f
6:10 10 11 mph 1015.1mb 73f
5:55 11 13 mph 1014.8mb 74f
5:40 14 15 mph 1014.7mb 74f
5:25 15 16 mph 1014.7mb 75f
5:10 14 15 mph 1014.7mb 74f
4:55 13 15 mph 1014.8mb 75f
4:40 11 13 mph 1015mb 74f
4:25 9 10 mph 1015mb 74f
4:10 9 11 mph 1015mb 74f
3:55 8 10 mph 1015.1mb 74f
3:40 8 9 mph 1015.3mb 74f
3:25 8 9 mph 1015.3mb 74f
3:10 9 10 mph 1015.4mb 74f
2:55 9
mph
1015.5mb 74f
2:40 10 11 mph 1015.4mb 74f
2:25 10 13 mph 1015.5mb 74f
2:10 10 11 mph 1015.4mb 74f
1:55 7 9 mph 1015.7mb 73f
1:40 5 6 mph 1015.8mb 73f
1:25 7
mph
1015.8mb 73f
1:10 7 8 mph 1015.9mb 73f
dim. 08/30 7:55 15 18 mph 1016.1mb 76f
7:40 8 10 mph 1016.1mb 74f
7:25 10
mph
1015.9mb 75f
7:10 10
mph
1015.9mb 75f
6:55 13 14 mph 1015.9mb 75f
6:40 14 15 mph 1015.8mb 75f
6:25 14 15 mph 1015.9mb 76f
6:10 11 13 mph 1015.9mb 76f
5:55 13 14 mph 1015.9mb 76f
5:40 14 16 mph 1015.9mb 76f
5:25 15 16 mph 1015.9mb 76f
5:10 17 18 mph 1015.8mb 76f
4:55 14 15 mph 1016mb 76f
4:40 15 16 mph 1016mb 76f
4:25 6 7 mph 1016.2mb 76f
4:10 5 6 mph 1016.5mb 76f
3:55 3 5 mph 1016.5mb 76f
3:40 3 5 mph 1016.8mb 76f
3:25 7 8 mph 1016.9mb 77f
3:10 6 8 mph 1016.9mb 76f
2:55 8 9 mph 1017.3mb 76f
2:40 9 10 mph 1017.5mb 75f
2:25 9 11 mph 1017.5mb 75f
2:10 10
mph
1017.6mb 75f
1:55 9 10 mph 1017.6mb 75f
1:40 11 13 mph 1017.8mb 75f
1:25 14 15 mph 1017.7mb 74f
1:10 13 15 mph 1017.8mb 74f
12:55 11 13 mph 1018mb 74f
12:40 14 15 mph 1018mb 74f
12:10 14
mph
1018.5mb 74f
11:55 13 14 mph 1018.7mb 74f
11:40 13 15 mph 1018.8mb 74f
11:25 11 14 mph 1018.8mb 74f
11:10 10 13 mph 1018.8mb 74f
10:55 10 13 mph 1018.9mb 74f
10:40 10 11 mph 1018.8mb 74f
10:25 11 13 mph 1018.7mb 74f
10:10 11 13 mph 1018.6mb 73f
9:55 13 14 mph 1018.6mb 73f
9:40 13 14 mph 1018.6mb 73f
9:25 13 15 mph 1018.6mb 73f
9:10 13 14 mph 1018.6mb 73f
8:55 14 15 mph 1018.5mb 73f
8:40 11 14 mph 1018.6mb 73f
8:25 11 14 mph 1018.7mb 73f
8:10 13 14 mph 1018.7mb 73f
7:55 13 15 mph 1018.7mb 73f
7:40 13 15 mph 1018.5mb 73f
7:25 14 16 mph 1018.3mb 73f
7:10 16 17 mph 1018.2mb 73f
6:55 16 18 mph 1018.1mb 73f
6:40 13 14 mph 1018.1mb 72f
6:25 16 18 mph 1017.9mb 72f
6:10 17 20 mph 1017.8mb 72f
5:55 17 20 mph 1017.8mb 73f
5:40 17 20 mph 1017.7mb 73f
5:25 17 20 mph 1017.7mb 73f
5:10 17 18 mph 1017.7mb 73f
4:55 17 18 mph 1017.8mb 73f
4:40 17 18 mph 1017.8mb 73f
4:25 16 18 mph 1017.8mb 73f
4:10 16 17 mph 1017.8mb 73f
3:55 14 16 mph 1018mb 73f
3:40 13 14 mph 1018mb 72f
3:25 11 13 mph 1018mb 72f
3:10 11 13 mph 1018.2mb 72f
2:55 10 11 mph 1018.3mb 72f
2:40 9 10 mph 1018.4mb 72f
2:10 9
mph
1018.7mb 72f
1:55 9 10 mph 1018.9mb 72f
1:40 11 13 mph 1019.1mb 72f
1:25 11 13 mph 1019.2mb 72f
1:10 11 13 mph 1019.2mb 72f
sam. 08/29 7:55 16 18 mph 1018.8mb 73f
7:40 16 17 mph 1018.7mb 74f
7:25 14 16 mph 1018.7mb 74f
7:10 13 15 mph 1018.7mb 74f
6:55 14 15 mph 1018.8mb 74f
6:40 14 16 mph 1018.8mb 74f
6:25 8 10 mph 1019mb 75f
6:10 8 10 mph 1018.9mb 76f
5:55 8 9 mph 1019.1mb 75f
5:40 8 9 mph 1019.2mb 76f
5:25 9 10 mph 1019.3mb 75f
5:10 11 13 mph 1019.3mb 75f
4:55 13 14 mph 1019.2mb 76f
4:40 11 13 mph 1019.3mb 76f
4:25 11 13 mph 1019.3mb 76f
4:10 11 13 mph 1019.4mb 76f
3:55 13 14 mph 1019.6mb 76f
3:40 13 14 mph 1019.6mb 75f
3:25 14 15 mph 1019.7mb 75f
3:10 14 15 mph 1020mb 75f
2:55 14 15 mph 1020.2mb 75f
2:40 14 16 mph 1020.5mb 75f
2:25 14 16 mph 1020.8mb 75f
2:10 15 16 mph 1020.9mb 75f
1:55 15 17 mph 1021mb 74f
1:40 16 17 mph 1021.2mb 74f
1:25 14 15 mph 1021.4mb 74f
1:10 14 16 mph 1021.3mb 73f
12:55 15 16 mph 1021.5mb 73f
12:40 14 16 mph 1021.8mb 74f
12:25 11 14 mph 1021.9mb 73f
12:10 13 14 mph 1022mb 73f
11:55 11 14 mph 1022.1mb 73f
11:40 11 13 mph 1022.2mb 73f
11:25 9 11 mph 1022.4mb 73f
11:10 8 10 mph 1022.4mb 73f
10:55 8 10 mph 1022.4mb 72f
10:40 6 7 mph 1022.5mb 74f
10:25 5 6 mph 1022.6mb 73f
10:10 5 6 mph 1022.6mb 73f
9:55 3
mph
1022.6mb 73f
9:40 2 3 mph 1022.6mb 74f
9:25 1 2 mph 1022.5mb 73f
9:10 1 2 mph 1022.5mb 74f
8:55 3 5 mph 1022.5mb 70f
8:40 6 8 mph 1022.5mb 69f
8:25 8 9 mph 1022.5mb 68f
8:10 8 9 mph 1022.4mb 67f
7:55 9 10 mph 1022.4mb 67f
7:40 8 9 mph 1022.3mb 67f
7:25 7 8 mph 1022.2mb 65f
7:10 9 10 mph 1022.1mb 65f
6:55 10 11 mph 1022mb 65f
6:40 11
mph
1021.9mb 64f
6:25 11 13 mph 1021.8mb 64f
6:10 9 10 mph 1021.5mb 64f
5:55 9 10 mph 1021.4mb 64f
5:40 10
mph
1021.3mb 64f
5:25 9
mph
1021.3mb 64f
5:10 9 10 mph 1021.3mb 65f
4:55 9
mph
1021.3mb 65f
4:40 8 9 mph 1021.1mb 65f
4:25 9 10 mph 1021.1mb 65f
4:10 10 11 mph 1021.3mb 66f
3:55 10
mph
1021.3mb 65f
3:40 10
mph
1021.3mb 66f
3:25 10 11 mph 1021.3mb 66f
3:10 9 10 mph 1021.2mb 66f
2:55 7
mph
1021.2mb 67f
2:40 7 8 mph 1021.2mb 67f
2:25 6 7 mph 1021.3mb 67f
2:10 5 6 mph 1021.3mb 68f
1:55 3 5 mph 1021.4mb 68f
1:40 2 3 mph 1021.4mb 68f
1:25 2 3 mph 1021.4mb 68f
1:10 5 6 mph 1021.5mb 69f
ven. 08/28 7:55 9 10 mph 1020.2mb 72f
7:40 10 11 mph 1020mb 73f
7:25 10 11 mph 1019.8mb 73f
7:10 10 13 mph 1019.8mb 73f
6:55 10 11 mph 1019.7mb 73f
6:40 10 11 mph 1019.7mb 74f
6:25 9 11 mph 1019.7mb 74f
6:10 9 11 mph 1019.7mb 74f
5:55 9 10 mph 1019.6mb 74f
5:40 10 11 mph 1019.4mb 74f
5:25 11 13 mph 1019.4mb 74f
5:10 11 13 mph 1019.5mb 74f
4:55 11 13 mph 1019.4mb 74f
4:40 11 13 mph 1019.3mb 74f
4:25 11 14 mph 1019.6mb 74f
4:10 11 14 mph 1019.8mb 74f
3:55 11 14 mph 1019.9mb 74f
3:40 11 13 mph 1020mb 74f
3:25 11 13 mph 1019.9mb 74f
3:10 10 11 mph 1019.9mb 74f
2:55 10 13 mph 1020mb 73f
2:40 10 11 mph 1020.2mb 74f
2:25 11 13 mph 1020.2mb 73f
2:10 11 13 mph 1020.2mb 74f
1:55 11
mph
1020.4mb 74f
1:40 13
mph
1020.5mb 73f
1:25 11 13 mph 1020.6mb 73f
1:10 11 14 mph 1020.6mb 72f
12:55 13
mph
1020.7mb 72f
12:40 11 13 mph 1020.7mb 72f
12:25 11
mph
1020.9mb 72f
12:10 11 13 mph 1021mb 72f
11:55 10 11 mph 1021.1mb 72f
11:40 8 9 mph 1021.1mb 72f
11:25 6 7 mph 1021.1mb 72f
11:10 5 6 mph 1021mb 73f
10:55 2 3 mph 1021mb 74f
10:40 5 6 mph 1021mb 74f
10:25 6 9 mph 1020.9mb 73f
10:10 7 9 mph 1020.9mb 72f
9:55 9 11 mph 1020.7mb 71f
9:40 10 11 mph 1020.5mb 71f
9:25 10 11 mph 1020.5mb 70f
9:10 11 13 mph 1020.4mb 69f
8:55 11 13 mph 1020.2mb 69f
8:40 14 15 mph 1020.3mb 68f
8:25 14 16 mph 1020.3mb 67f
8:10 15 17 mph 1020.2mb 67f
7:55 16 18 mph 1020mb 66f
7:40 17 21 mph 1019.9mb 65f
7:25 16 17 mph 1019.8mb 64f
7:10 14 15 mph 1019.8mb 64f